createdAt,value
2023-05-09T00:00:47.517Z,4.23
2023-05-09T00:03:15.765Z,3.97
2023-05-09T00:05:44.012Z,4.10
2023-05-09T00:08:12.380Z,4.50
2023-05-09T00:10:41.882Z,4.40
2023-05-09T00:13:10.092Z,4.53
2023-05-09T00:15:39.018Z,4.00
2023-05-09T00:18:07.466Z,4.50
2023-05-09T00:20:36.191Z,4.70
2023-05-09T00:23:05.073Z,3.93
2023-05-09T00:25:33.254Z,3.80
2023-05-09T00:28:02.892Z,4.00
2023-05-09T00:30:31.096Z,4.33
2023-05-09T00:32:59.303Z,4.33
2023-05-09T00:35:27.987Z,3.50
2023-05-09T00:37:56.123Z,3.70
2023-05-09T00:40:24.386Z,3.70
2023-05-09T00:42:52.747Z,3.43
2023-05-09T00:45:22.473Z,4.10
2023-05-09T00:47:50.781Z,3.70
2023-05-09T00:50:19.031Z,3.33
2023-05-09T00:52:47.418Z,3.77
2023-05-09T00:55:16.972Z,3.70
2023-05-09T00:57:45.252Z,3.90
2023-05-09T01:00:14.507Z,3.70
2023-05-09T01:02:47.345Z,3.50
2023-05-09T01:05:16.719Z,3.47
2023-05-09T01:07:51.705Z,3.57
2023-05-09T01:10:28.040Z,3.23
2023-05-09T01:13:05.011Z,3.63
2023-05-09T01:15:40.635Z,3.83
2023-05-09T01:18:16.198Z,3.77
2023-05-09T01:20:47.497Z,3.63
2023-05-09T01:23:45.299Z,3.67
2023-05-09T01:26:20.210Z,3.40
2023-05-09T01:29:06.340Z,3.80
2023-05-09T01:31:41.694Z,3.30
2023-05-09T01:34:12.389Z,3.40
2023-05-09T01:36:43.381Z,3.40
2023-05-09T01:39:13.746Z,4.07
2023-05-09T01:41:42.016Z,3.30
2023-05-09T01:44:13.403Z,3.63
2023-05-09T01:46:44.789Z,3.90
2023-05-09T01:49:14.133Z,3.80
2023-05-09T01:51:44.148Z,3.53
2023-05-09T01:54:14.612Z,3.20
2023-05-09T01:56:44.280Z,3.40
2023-05-09T01:59:16.073Z,3.37
2023-05-09T02:01:47.239Z,3.23
2023-05-09T02:04:19.060Z,3.77
2023-05-09T02:06:50.667Z,3.50
2023-05-09T02:09:20.448Z,3.47
2023-05-09T02:11:48.695Z,3.40
2023-05-09T02:14:17.063Z,3.37
2023-05-09T02:16:47.444Z,3.17
2023-05-09T02:19:16.880Z,3.20
2023-05-09T02:21:45.413Z,3.60
2023-05-09T02:24:14.045Z,3.80
2023-05-09T02:26:43.062Z,3.40
2023-05-09T02:29:12.899Z,2.80
2023-05-09T02:31:43.577Z,3.27
2023-05-09T02:34:14.342Z,3.33
2023-05-09T02:36:43.359Z,3.13
2023-05-09T02:39:11.895Z,3.00
2023-05-09T02:41:40.032Z,3.40
2023-05-09T02:44:08.528Z,2.87
2023-05-09T02:46:36.653Z,3.40
2023-05-09T02:49:04.764Z,3.23
2023-05-09T02:51:34.243Z,2.87
2023-05-09T02:54:02.436Z,3.23
2023-05-09T02:56:30.611Z,3.10
2023-05-09T02:58:58.772Z,3.53
2023-05-09T03:01:26.933Z,3.13
2023-05-09T03:03:55.180Z,3.00
2023-05-09T03:06:23.593Z,3.13
2023-05-09T03:08:53.106Z,3.10
2023-05-09T03:11:23.020Z,3.50
2023-05-09T03:13:51.189Z,3.00
2023-05-09T03:16:20.041Z,2.97
2023-05-09T03:18:48.258Z,3.20
2023-05-09T03:21:16.624Z,3.00
2023-05-09T03:23:44.905Z,2.97
2023-05-09T03:26:14.712Z,2.60
2023-05-09T03:28:42.909Z,2.70
2023-05-09T03:31:11.239Z,3.10
2023-05-09T03:33:39.360Z,2.93
2023-05-09T03:36:09.147Z,3.07
2023-05-09T03:38:38.336Z,2.80
2023-05-09T03:41:06.586Z,2.90
2023-05-09T03:43:36.289Z,3.00
2023-05-09T03:46:04.411Z,3.00
2023-05-09T03:48:33.254Z,3.00
2023-05-09T03:51:01.361Z,2.93
2023-05-09T03:53:31.556Z,3.23
2023-05-09T03:55:59.777Z,2.83
2023-05-09T03:58:29.035Z,3.10
2023-05-09T04:00:58.801Z,3.10
2023-05-09T04:03:27.543Z,3.20
2023-05-09T04:05:56.408Z,2.70
2023-05-09T04:08:33.520Z,2.33
2023-05-09T04:11:03.592Z,3.53
2023-05-09T04:13:33.044Z,2.57
2023-05-09T04:16:06.570Z,3.00
2023-05-09T04:18:36.514Z,2.80
2023-05-09T04:21:04.867Z,2.83
2023-05-09T04:23:33.714Z,3.10
2023-05-09T04:26:01.887Z,2.70
2023-05-09T04:28:30.512Z,3.07
2023-05-09T04:30:59.509Z,3.13
2023-05-09T04:33:30.115Z,2.83
2023-05-09T04:36:02.012Z,3.27
2023-05-09T04:38:30.912Z,3.23
2023-05-09T04:40:59.644Z,2.83
2023-05-09T04:43:28.415Z,2.77
2023-05-09T04:45:57.865Z,3.07
2023-05-09T04:48:26.421Z,3.00
2023-05-09T04:50:56.124Z,3.03
2023-05-09T04:53:24.378Z,2.93
2023-05-09T04:55:53.312Z,2.87
2023-05-09T04:58:22.114Z,2.80
2023-05-09T05:00:51.401Z,3.07
2023-05-09T05:03:20.064Z,3.20
2023-05-09T05:05:48.395Z,2.80
2023-05-09T05:08:18.269Z,3.23
2023-05-09T05:10:47.549Z,3.00
2023-05-09T05:13:17.021Z,3.43
2023-05-09T05:15:48.797Z,3.30
2023-05-09T05:18:17.266Z,3.33
2023-05-09T05:20:45.804Z,3.50
2023-05-09T05:23:14.033Z,2.87
2023-05-09T05:25:43.568Z,3.50
2023-05-09T05:28:11.764Z,3.27
2023-05-09T05:30:41.621Z,3.13
2023-05-09T05:33:09.868Z,3.23
2023-05-09T05:35:38.031Z,3.10
2023-05-09T05:38:06.198Z,3.37
2023-05-09T05:40:34.364Z,3.27
2023-05-09T05:43:06.863Z,2.70
2023-05-09T05:45:36.824Z,3.10
2023-05-09T05:48:08.025Z,3.20
2023-05-09T05:50:36.722Z,3.30
2023-05-09T05:53:06.531Z,3.10
2023-05-09T05:55:34.977Z,3.40
2023-05-09T05:58:03.597Z,2.70
2023-05-09T06:00:33.263Z,3.67
2023-05-09T06:03:06.333Z,7.43
2023-05-09T06:05:44.129Z,4.40
2023-05-09T06:08:13.266Z,3.80
2023-05-09T06:10:41.764Z,4.00
2023-05-09T06:13:10.173Z,4.07
2023-05-09T06:15:42.441Z,4.10
2023-05-09T06:18:11.383Z,4.40
2023-05-09T06:20:39.585Z,4.00
2023-05-09T06:23:07.751Z,4.70
2023-05-09T06:25:35.919Z,3.70
2023-05-09T06:28:04.222Z,4.40
2023-05-09T06:30:32.459Z,3.70
2023-05-09T06:33:01.999Z,4.30
2023-05-09T06:35:30.350Z,4.20
2023-05-09T06:37:58.621Z,3.83
2023-05-09T06:40:26.822Z,4.00
2023-05-09T06:42:55.016Z,3.30
2023-05-09T06:45:23.649Z,3.40
2023-05-09T06:47:51.904Z,3.57
2023-05-09T06:50:21.677Z,4.00
2023-05-09T06:52:49.820Z,4.10
2023-05-09T06:55:18.100Z,4.00
2023-05-09T06:57:46.479Z,3.20
2023-05-09T07:00:16.115Z,3.70
2023-05-09T07:02:44.359Z,3.70
2023-05-09T07:05:12.691Z,4.17
2023-05-09T07:07:42.287Z,3.90
2023-05-09T07:10:12.754Z,3.67
2023-05-09T07:12:42.045Z,3.97
2023-05-09T07:15:11.537Z,3.50
2023-05-09T07:17:39.857Z,3.77
2023-05-09T07:20:08.997Z,3.47
2023-05-09T07:22:37.789Z,3.40
2023-05-09T07:25:09.624Z,3.83
2023-05-09T07:27:38.189Z,3.83
2023-05-09T07:30:07.590Z,3.50
2023-05-09T07:32:36.228Z,3.87
2023-05-09T07:35:04.722Z,3.90
2023-05-09T07:37:32.907Z,3.57
2023-05-09T07:40:01.544Z,3.40
2023-05-09T07:42:32.599Z,3.90
2023-05-09T07:45:00.970Z,4.00
2023-05-09T07:47:29.083Z,4.80
2023-05-09T07:49:57.346Z,4.70
2023-05-09T07:52:25.515Z,4.00
2023-05-09T07:54:54.613Z,4.30
2023-05-09T07:57:23.316Z,4.03
2023-05-09T07:59:52.872Z,3.87
2023-05-09T08:02:21.159Z,4.70
2023-05-09T08:04:49.371Z,4.87
2023-05-09T08:07:17.590Z,4.43
2023-05-09T08:09:45.794Z,4.23
2023-05-09T08:12:13.985Z,4.03
2023-05-09T08:14:42.175Z,4.20
2023-05-09T08:17:11.673Z,4.37
2023-05-09T08:19:39.861Z,4.70
2023-05-09T08:22:07.998Z,3.87
2023-05-09T08:24:36.121Z,3.90
2023-05-09T08:27:04.278Z,4.10
2023-05-09T08:29:32.454Z,4.00
2023-05-09T08:32:00.617Z,3.50
2023-05-09T08:34:31.395Z,4.60
2023-05-09T08:36:59.500Z,4.63
2023-05-09T08:39:27.609Z,4.30
2023-05-09T08:41:59.874Z,4.10
2023-05-09T08:44:30.512Z,4.27
2023-05-09T08:47:01.749Z,4.40
2023-05-09T08:49:31.750Z,3.50
2023-05-09T08:52:00.890Z,3.57
2023-05-09T08:54:29.978Z,4.40
2023-05-09T08:56:59.101Z,4.00
2023-05-09T08:59:28.107Z,3.87
2023-05-09T09:01:56.571Z,3.63
2023-05-09T09:04:24.793Z,4.20
2023-05-09T09:06:55.559Z,4.03
2023-05-09T09:09:24.554Z,3.37
2023-05-09T09:11:53.363Z,4.10
2023-05-09T09:14:26.065Z,3.50
2023-05-09T09:16:56.804Z,4.23
2023-05-09T09:19:31.068Z,4.40
2023-05-09T09:22:04.524Z,3.87
2023-05-09T09:24:32.735Z,4.20
2023-05-09T09:27:06.742Z,4.00
2023-05-09T09:29:35.626Z,4.53
2023-05-09T09:32:07.446Z,4.57
2023-05-09T09:34:35.823Z,3.63
2023-05-09T09:37:08.223Z,4.60
2023-05-09T09:39:36.397Z,4.30
2023-05-09T09:42:12.584Z,3.77
2023-05-09T09:44:40.741Z,4.57
2023-05-09T09:47:11.752Z,3.80
2023-05-09T09:49:47.657Z,3.60
2023-05-09T09:52:25.137Z,3.63
2023-05-09T09:54:56.510Z,4.00
2023-05-09T09:57:45.649Z,3.53
2023-05-09T10:00:15.988Z,4.40
2023-05-09T10:02:54.502Z,3.83
2023-05-09T10:05:23.593Z,3.67
2023-05-09T10:07:56.142Z,3.70
2023-05-09T10:10:26.346Z,3.83
2023-05-09T10:12:57.575Z,3.50
2023-05-09T10:15:27.726Z,3.40
2023-05-09T10:18:00.901Z,3.50
2023-05-09T10:20:29.638Z,3.90
2023-05-09T10:23:02.968Z,3.23
2023-05-09T10:25:39.467Z,3.93
2023-05-09T10:28:12.190Z,3.77
2023-05-09T10:30:51.354Z,4.60
2023-05-09T10:33:24.896Z,4.20
2023-05-09T10:35:55.414Z,4.23
2023-05-09T10:38:25.938Z,4.20
2023-05-09T10:40:55.429Z,3.47
2023-05-09T10:43:25.365Z,3.87
2023-05-09T10:45:54.646Z,4.00
2023-05-09T10:48:24.186Z,3.70
2023-05-09T10:50:53.325Z,3.80
2023-05-09T10:53:24.262Z,3.87
2023-05-09T10:55:56.453Z,4.00
2023-05-09T10:58:29.179Z,3.40
2023-05-09T11:00:58.772Z,3.70
2023-05-09T11:03:27.998Z,4.43
2023-05-09T11:05:57.956Z,3.90
2023-05-09T11:08:27.828Z,4.07
2023-05-09T11:11:00.585Z,3.93
2023-05-09T11:13:33.327Z,3.83
2023-05-09T11:16:12.737Z,3.70
2023-05-09T11:18:53.060Z,3.90
2023-05-09T11:21:22.413Z,4.63
2023-05-09T11:23:54.507Z,3.90
2023-05-09T11:26:30.818Z,4.27
2023-05-09T11:29:01.208Z,3.50
2023-05-09T11:31:29.401Z,4.17
2023-05-09T11:34:04.934Z,3.30
2023-05-09T11:36:33.807Z,4.27
2023-05-09T11:39:07.594Z,4.27
2023-05-09T11:41:43.218Z,3.90
2023-05-09T11:44:18.928Z,4.93
2023-05-09T11:46:47.753Z,3.83
2023-05-09T11:49:16.970Z,4.50
2023-05-09T11:51:45.452Z,3.83
2023-05-09T11:54:14.904Z,4.70
2023-05-09T11:56:44.668Z,4.10
2023-05-09T11:59:15.983Z,4.30
2023-05-09T12:01:44.601Z,4.50
2023-05-09T12:04:13.813Z,4.17
2023-05-09T12:06:48.463Z,3.83
2023-05-09T12:09:17.596Z,4.23
2023-05-09T12:11:51.006Z,3.67
2023-05-09T12:14:28.771Z,4.20
2023-05-09T12:16:57.289Z,4.40
2023-05-09T12:19:26.579Z,3.77
2023-05-09T12:21:58.874Z,4.03
2023-05-09T12:24:27.962Z,4.07
2023-05-09T12:26:59.626Z,3.83
2023-05-09T12:29:29.381Z,5.07
2023-05-09T12:31:59.019Z,4.03
2023-05-09T12:34:27.378Z,3.30
2023-05-09T12:36:55.548Z,3.50
2023-05-09T12:39:24.607Z,3.70
2023-05-09T12:42:01.567Z,3.47
2023-05-09T12:44:31.719Z,3.43
2023-05-09T12:47:02.007Z,4.00
2023-05-09T12:49:30.997Z,4.00
2023-05-09T12:52:03.810Z,4.17
2023-05-09T12:54:35.242Z,5.03
2023-05-09T12:57:05.726Z,5.47
2023-05-09T12:59:35.380Z,4.70
2023-05-09T13:02:03.820Z,4.83
2023-05-09T13:04:32.029Z,4.97
2023-05-09T13:07:00.379Z,5.07
2023-05-09T13:09:29.654Z,4.80
2023-05-09T13:11:57.812Z,4.40
2023-05-09T13:14:26.461Z,5.07
2023-05-09T13:16:56.269Z,4.07
2023-05-09T13:19:24.463Z,4.97
2023-05-09T13:21:52.801Z,4.27
2023-05-09T13:24:20.973Z,4.43
2023-05-09T13:26:49.157Z,4.47
2023-05-09T13:29:17.282Z,5.00
2023-05-09T13:31:45.492Z,4.70
2023-05-09T13:34:15.062Z,5.10
2023-05-09T13:36:43.240Z,3.87
2023-05-09T13:39:11.841Z,4.53
2023-05-09T13:41:40.007Z,4.13
2023-05-09T13:44:08.321Z,3.60
2023-05-09T13:46:37.336Z,3.93
2023-05-09T13:49:05.849Z,4.43
2023-05-09T13:51:35.460Z,4.40
2023-05-09T13:54:04.677Z,4.33
2023-05-09T13:56:32.877Z,5.07
2023-05-09T13:59:01.048Z,5.20
2023-05-09T14:01:29.257Z,3.87
2023-05-09T14:03:57.497Z,4.17
2023-05-09T14:06:25.706Z,3.50
2023-05-09T14:08:55.953Z,3.80
2023-05-09T14:11:25.582Z,3.43
2023-05-09T14:13:54.974Z,3.87
2023-05-09T14:16:24.056Z,3.77
2023-05-09T14:18:52.510Z,3.60
2023-05-09T14:21:20.781Z,3.47
2023-05-09T14:23:49.634Z,3.90
2023-05-09T14:26:19.789Z,3.90
2023-05-09T14:28:48.470Z,4.20
2023-05-09T14:31:17.300Z,3.67
2023-05-09T14:33:46.172Z,3.80
2023-05-09T14:36:14.622Z,3.37
2023-05-09T14:38:43.301Z,3.87
2023-05-09T14:41:11.592Z,2.83
2023-05-09T14:43:41.181Z,3.93
2023-05-09T14:46:09.354Z,3.10
2023-05-09T14:48:37.586Z,3.80
2023-05-09T14:51:05.973Z,3.50
2023-05-09T14:53:35.532Z,2.93
2023-05-09T14:56:03.738Z,3.87
2023-05-09T14:58:34.236Z,3.93
2023-05-09T15:01:04.232Z,3.40
2023-05-09T15:03:32.809Z,3.50
2023-05-09T15:06:01.441Z,3.00
2023-05-09T15:08:29.910Z,4.03
2023-05-09T15:10:58.086Z,3.40
2023-05-09T15:13:26.371Z,3.50
2023-05-09T15:15:54.562Z,3.73
2023-05-09T15:18:28.416Z,3.00
2023-05-09T15:20:56.988Z,2.70
2023-05-09T15:23:25.969Z,3.67
2023-05-09T15:25:54.798Z,2.77
2023-05-09T15:28:23.900Z,3.23
2023-05-09T15:30:52.141Z,3.03
2023-05-09T15:33:21.035Z,3.57
2023-05-09T15:35:51.269Z,3.70
2023-05-09T15:38:20.091Z,4.10
2023-05-09T15:40:48.854Z,3.17
2023-05-09T15:43:18.074Z,4.10
2023-05-09T15:45:47.511Z,3.27
2023-05-09T15:48:16.741Z,4.10
2023-05-09T15:50:45.696Z,3.70
2023-05-09T15:53:16.193Z,4.23
2023-05-09T15:55:44.787Z,4.20
2023-05-09T15:58:14.096Z,3.70
2023-05-09T16:00:42.299Z,4.03
2023-05-09T16:03:10.630Z,3.50
2023-05-09T16:05:40.966Z,3.70
2023-05-09T16:08:09.280Z,3.97
2023-05-09T16:10:38.839Z,4.00
2023-05-09T16:13:07.300Z,4.63
2023-05-09T16:15:35.686Z,4.57
2023-05-09T16:18:03.825Z,4.00
2023-05-09T16:20:31.958Z,4.00
2023-05-09T16:23:00.104Z,3.87
2023-05-09T16:25:28.304Z,3.80
2023-05-09T16:27:58.308Z,3.37
2023-05-09T16:30:26.631Z,3.67
2023-05-09T16:32:54.797Z,3.93
2023-05-09T16:35:23.047Z,4.17
2023-05-09T16:37:51.336Z,3.90
2023-05-09T16:40:20.258Z,3.37
2023-05-09T16:42:48.407Z,3.60
2023-05-09T16:45:18.062Z,4.23
2023-05-09T16:47:46.308Z,3.20
2023-05-09T16:50:14.866Z,4.07
2023-05-09T16:52:43.202Z,3.80
2023-05-09T16:55:11.531Z,3.83
2023-05-09T16:57:39.726Z,3.60
2023-05-09T17:00:09.782Z,3.50
2023-05-09T17:02:39.370Z,3.60
2023-05-09T17:05:08.734Z,3.20
2023-05-09T17:07:36.887Z,3.67
2023-05-09T17:10:05.230Z,3.73
2023-05-09T17:12:34.085Z,3.77
2023-05-09T17:15:02.259Z,3.30
2023-05-09T17:17:30.427Z,3.53
2023-05-09T17:20:00.966Z,3.47
2023-05-09T17:22:29.220Z,3.57
2023-05-09T17:24:57.407Z,3.70
2023-05-09T17:27:27.029Z,3.37
2023-05-09T17:29:55.216Z,3.97
2023-05-09T17:32:23.556Z,3.87
2023-05-09T17:34:51.736Z,3.53
2023-05-09T17:37:21.354Z,3.50
2023-05-09T17:39:49.492Z,2.90
2023-05-09T17:42:20.390Z,3.13
2023-05-09T17:44:51.795Z,3.70
2023-05-09T17:47:20.001Z,3.70
2023-05-09T17:49:48.188Z,3.67
2023-05-09T17:52:16.452Z,3.97
2023-05-09T17:54:46.772Z,3.60
2023-05-09T17:57:14.877Z,3.40
2023-05-09T17:59:42.999Z,3.40
2023-05-09T18:02:11.262Z,3.13
2023-05-09T18:04:39.527Z,2.70
2023-05-09T18:07:09.978Z,3.00
2023-05-09T18:09:38.132Z,3.27
2023-05-09T18:12:08.708Z,3.93
2023-05-09T18:14:36.959Z,3.30
2023-05-09T18:17:05.065Z,3.53
2023-05-09T18:19:33.827Z,3.93
2023-05-09T18:22:01.982Z,2.90
2023-05-09T18:24:30.275Z,3.47
2023-05-09T18:26:58.440Z,3.00
2023-05-09T18:29:27.967Z,3.30
2023-05-09T18:31:56.386Z,3.30
2023-05-09T18:34:24.616Z,3.00
2023-05-09T18:36:53.259Z,3.20
2023-05-09T18:39:21.489Z,2.83
2023-05-09T18:41:49.611Z,2.80
2023-05-09T18:44:17.722Z,3.60
2023-05-09T18:46:47.273Z,3.30
2023-05-09T18:49:15.521Z,2.50
2023-05-09T18:51:43.712Z,3.00
2023-05-09T18:54:13.921Z,3.47
2023-05-09T18:56:42.359Z,3.83
2023-05-09T18:59:13.616Z,3.20
2023-05-09T19:01:43.926Z,3.20
2023-05-09T19:04:14.150Z,2.97
2023-05-09T19:06:42.963Z,3.00
2023-05-09T19:09:11.522Z,3.33
2023-05-09T19:11:39.755Z,2.67
2023-05-09T19:14:07.951Z,3.30
2023-05-09T19:16:36.271Z,3.00
2023-05-09T19:19:04.546Z,3.17
2023-05-09T19:21:35.617Z,2.83
2023-05-09T19:24:06.313Z,3.40
2023-05-09T19:26:34.505Z,4.30
2023-05-09T19:29:08.177Z,3.50
2023-05-09T19:31:37.891Z,3.70
2023-05-09T19:34:06.294Z,3.07
2023-05-09T19:36:36.007Z,3.43
2023-05-09T19:39:05.318Z,2.97
2023-05-09T19:41:34.399Z,3.67
2023-05-09T19:44:02.929Z,3.17
2023-05-09T19:46:31.599Z,3.27
2023-05-09T19:49:00.483Z,2.50
2023-05-09T19:51:29.649Z,4.00
2023-05-09T19:53:59.810Z,3.10
2023-05-09T19:56:28.694Z,3.03
2023-05-09T19:58:56.910Z,2.93
2023-05-09T20:01:25.206Z,3.40
2023-05-09T20:03:54.205Z,3.47
2023-05-09T20:06:23.130Z,3.00
2023-05-09T20:08:52.169Z,3.10
2023-05-09T20:11:22.540Z,2.40
2023-05-09T20:13:51.186Z,2.57
2023-05-09T20:16:21.265Z,3.00
2023-05-09T20:18:52.230Z,2.97
2023-05-09T20:21:20.677Z,2.57
2023-05-09T20:23:48.955Z,2.47
2023-05-09T20:26:17.800Z,3.40
2023-05-09T20:28:47.927Z,2.60
2023-05-09T20:31:16.723Z,2.60
2023-05-09T20:33:45.523Z,2.50
2023-05-09T20:36:13.770Z,2.93
2023-05-09T20:38:41.953Z,2.90
2023-05-09T20:41:10.075Z,2.60
2023-05-09T20:43:38.417Z,2.60
2023-05-09T20:46:08.216Z,2.67
2023-05-09T20:48:37.720Z,2.63
2023-05-09T20:51:05.960Z,2.70
2023-05-09T20:53:34.984Z,2.70
2023-05-09T20:56:03.328Z,2.60
2023-05-09T20:58:57.082Z,2.40
2023-05-09T21:01:27.310Z,2.53
2023-05-09T21:03:56.037Z,2.37
2023-05-09T21:06:24.704Z,3.03
2023-05-09T21:08:53.334Z,2.63
2023-05-09T21:11:22.199Z,2.80
2023-05-09T21:13:51.546Z,2.50
2023-05-09T21:16:20.551Z,2.83
2023-05-09T21:18:50.866Z,2.23
2023-05-09T21:21:19.717Z,2.07
2023-05-09T21:23:48.393Z,2.43
2023-05-09T21:26:16.602Z,2.10
2023-05-09T21:28:44.743Z,2.87
2023-05-09T21:31:12.956Z,2.40
2023-05-09T21:33:41.103Z,2.70
2023-05-09T21:36:11.039Z,2.10
2023-05-09T21:38:39.226Z,2.13
2023-05-09T21:41:07.404Z,1.80
2023-05-09T21:43:36.134Z,2.20
2023-05-09T21:46:05.361Z,2.40
2023-05-09T21:48:33.709Z,2.40
2023-05-09T21:51:02.907Z,2.37
2023-05-09T21:53:32.491Z,2.13
2023-05-09T21:56:00.674Z,2.40
2023-05-09T21:58:28.860Z,2.20
2023-05-09T22:00:56.998Z,1.97
2023-05-09T22:03:25.324Z,2.27
2023-05-09T22:05:53.569Z,2.20
2023-05-09T22:08:23.716Z,2.53
2023-05-09T22:10:53.399Z,1.80
2023-05-09T22:13:21.557Z,1.97
2023-05-09T22:15:49.931Z,2.03
2023-05-09T22:18:18.071Z,2.13
2023-05-09T22:20:46.309Z,2.57
2023-05-09T22:23:14.523Z,1.90
2023-05-09T22:25:42.670Z,2.23
2023-05-09T22:28:12.158Z,2.43
2023-05-09T22:30:41.874Z,2.00
2023-05-09T22:33:10.112Z,1.60
2023-05-09T22:35:38.220Z,2.00
2023-05-09T22:38:06.582Z,1.90
2023-05-09T22:40:34.854Z,2.00
2023-05-09T22:43:03.072Z,1.90
2023-05-09T22:45:32.692Z,1.70
2023-05-09T22:48:00.864Z,2.13
2023-05-09T22:50:29.099Z,2.07
2023-05-09T22:52:57.319Z,1.83
2023-05-09T22:55:25.437Z,2.00
2023-05-09T22:57:53.647Z,1.90
2023-05-09T23:00:22.091Z,1.90
2023-05-09T23:02:51.672Z,1.60
2023-05-09T23:05:20.023Z,2.00
2023-05-09T23:07:48.370Z,2.00
2023-05-09T23:10:16.930Z,1.63
2023-05-09T23:12:45.305Z,1.60
2023-05-09T23:15:13.561Z,1.90
2023-05-09T23:17:41.817Z,1.70
2023-05-09T23:20:12.570Z,1.60
2023-05-09T23:22:40.737Z,1.70
2023-05-09T23:25:10.192Z,1.60
2023-05-09T23:27:40.634Z,1.67
2023-05-09T23:30:10.651Z,1.70
2023-05-09T23:32:38.896Z,1.27
2023-05-09T23:35:07.852Z,2.07
2023-05-09T23:37:37.407Z,1.90
2023-05-09T23:40:06.130Z,1.70
2023-05-09T23:42:34.271Z,1.50
2023-05-09T23:45:02.407Z,1.83
2023-05-09T23:47:30.564Z,1.37
2023-05-09T23:49:58.790Z,1.60
2023-05-09T23:52:26.981Z,1.50
2023-05-09T23:54:56.478Z,1.67
2023-05-09T23:57:24.618Z,1.70
2023-05-09T23:59:52.801Z,1.80
